createdAt,value
2023-01-04T00:01:36.587Z,5.12
2023-01-04T00:04:06.986Z,5.36
2023-01-04T00:06:36.559Z,4.98
2023-01-04T00:09:04.914Z,5.07
2023-01-04T00:11:33.548Z,5.17
2023-01-04T00:14:01.887Z,5.14
2023-01-04T00:16:30.676Z,5.06
2023-01-04T00:18:59.352Z,5.07
2023-01-04T00:21:31.137Z,5.31
2023-01-04T00:24:01.565Z,5.16
2023-01-04T00:26:32.052Z,5.14
2023-01-04T00:29:02.056Z,5.04
2023-01-04T00:31:30.827Z,4.81
2023-01-04T00:34:00.935Z,5.14
2023-01-04T00:36:31.052Z,5.26
2023-01-04T00:39:10.200Z,5.28
2023-01-04T00:44:29.845Z,5.23
2023-01-04T00:46:58.719Z,5.31
2023-01-04T00:49:27.328Z,5.25
2023-01-04T00:51:57.455Z,5.43
2023-01-04T00:54:26.031Z,5.07
2023-01-04T00:56:54.569Z,5.09
2023-01-04T00:59:23.341Z,5.10
2023-01-04T01:01:52.793Z,5.14
2023-01-04T01:04:23.620Z,5.19
2023-01-04T01:06:53.003Z,4.95
2023-01-04T01:09:23.960Z,5.13
2023-01-04T01:11:52.470Z,5.79
2023-01-04T01:14:22.844Z,5.39
2023-01-04T01:16:57.223Z,5.13
2023-01-04T01:19:27.856Z,5.24
2023-01-04T01:21:57.528Z,4.79
2023-01-04T01:24:28.025Z,5.04
2023-01-04T01:26:57.400Z,4.78
2023-01-04T01:29:25.983Z,4.69
2023-01-04T01:31:54.866Z,4.49
2023-01-04T01:34:23.097Z,4.41
2023-01-04T01:36:51.716Z,4.39
2023-01-04T01:39:20.077Z,4.34
2023-01-04T01:41:50.325Z,4.58
2023-01-04T01:44:56.261Z,5.00
2023-01-04T01:47:26.874Z,4.53
2023-01-04T01:49:55.866Z,4.47
2023-01-04T01:52:27.445Z,4.69
2023-01-04T01:54:55.829Z,5.11
2023-01-04T01:57:27.245Z,4.87
2023-01-04T01:59:57.522Z,4.65
2023-01-04T02:02:26.289Z,4.30
2023-01-04T02:04:54.866Z,4.18
2023-01-04T02:07:25.447Z,4.46
2023-01-04T02:09:53.736Z,4.23
2023-01-04T02:12:22.537Z,4.23
2023-01-04T02:14:52.695Z,4.40
2023-01-04T02:17:31.119Z,4.52
2023-01-04T02:20:24.152Z,4.71
2023-01-04T02:23:19.087Z,4.71
2023-01-04T02:26:17.627Z,4.66
2023-01-04T02:29:02.035Z,4.60
2023-01-04T02:31:37.198Z,4.53
2023-01-04T02:34:10.953Z,4.41
2023-01-04T02:36:42.539Z,4.32
2023-01-04T02:39:18.571Z,4.43
2023-01-04T02:41:51.763Z,4.36
2023-01-04T02:44:41.950Z,4.25
2023-01-04T02:47:13.698Z,4.41
2023-01-04T02:50:04.616Z,3.86
2023-01-04T02:52:34.484Z,4.14
2023-01-04T02:55:06.671Z,4.28
2023-01-04T02:57:44.913Z,4.47
2023-01-04T03:00:29.818Z,4.54
2023-01-04T03:03:29.927Z,4.55
2023-01-04T03:06:16.725Z,4.52
2023-01-04T03:08:51.382Z,4.53
2023-01-04T03:11:37.628Z,4.32
2023-01-04T03:14:32.269Z,4.49
2023-01-04T03:17:00.461Z,4.35
2023-01-04T03:19:47.310Z,4.35
2023-01-04T03:22:31.777Z,4.25
2023-01-04T03:25:18.791Z,4.18
2023-01-04T03:28:05.441Z,4.17
2023-01-04T03:30:54.484Z,4.37
2023-01-04T03:33:41.035Z,4.17
2023-01-04T03:36:21.722Z,4.46
2023-01-04T03:39:11.208Z,4.13
2023-01-04T03:42:03.333Z,4.08
2023-01-04T03:44:51.850Z,4.07
2023-01-04T03:47:41.541Z,3.96
2023-01-04T03:50:14.187Z,3.99
2023-01-04T03:52:45.126Z,4.13
2023-01-04T03:55:13.712Z,4.74
2023-01-04T03:57:42.261Z,4.01
2023-01-04T04:00:13.367Z,4.04
2023-01-04T04:02:42.485Z,3.93
2023-01-04T04:05:33.600Z,3.98
2023-01-04T04:08:21.147Z,3.94
2023-01-04T04:10:49.764Z,3.70
2023-01-04T04:13:20.762Z,3.63
2023-01-04T04:15:49.433Z,3.64
2023-01-04T04:18:17.686Z,3.55
2023-01-04T04:20:46.374Z,3.58
2023-01-04T04:23:15.979Z,3.75
2023-01-04T04:25:44.485Z,3.60
2023-01-04T04:28:12.750Z,3.45
2023-01-04T04:30:41.229Z,3.53
2023-01-04T04:33:09.624Z,3.50
2023-01-04T04:35:38.125Z,3.46
2023-01-04T04:38:06.358Z,3.37
2023-01-04T04:40:53.904Z,3.58
2023-01-04T04:43:22.507Z,3.56
2023-01-04T04:45:51.217Z,3.68
2023-01-04T04:48:19.796Z,3.66
2023-01-04T04:50:48.381Z,3.59
2023-01-04T04:53:16.694Z,3.48
2023-01-04T04:55:46.766Z,3.78
2023-01-04T04:58:15.090Z,3.55
2023-01-04T05:00:44.070Z,3.62
2023-01-04T05:03:12.623Z,3.62
2023-01-04T05:05:41.385Z,3.52
2023-01-04T05:08:09.755Z,3.52
2023-01-04T05:10:38.988Z,3.54
2023-01-04T05:13:10.844Z,3.66
2023-01-04T05:15:41.583Z,3.69
2023-01-04T05:18:11.095Z,3.72
2023-01-04T05:20:39.769Z,3.57
2023-01-04T05:23:09.045Z,3.70
2023-01-04T05:25:37.741Z,3.72
2023-01-04T05:28:08.248Z,3.83
2023-01-04T05:30:51.290Z,3.55
2023-01-04T05:33:21.435Z,3.84
2023-01-04T05:35:50.537Z,3.79
2023-01-04T05:38:19.396Z,3.52
2023-01-04T05:40:48.340Z,3.61
2023-01-04T05:43:18.224Z,3.80
2023-01-04T05:45:50.211Z,3.87
2023-01-04T05:48:18.541Z,3.59
2023-01-04T05:50:47.393Z,3.74
2023-01-04T05:53:18.971Z,4.13
2023-01-04T05:55:49.220Z,4.07
2023-01-04T05:58:19.197Z,4.48
2023-01-04T06:00:47.707Z,3.68
2023-01-04T06:03:16.098Z,3.62
2023-01-04T06:05:44.652Z,3.51
2023-01-04T06:08:12.892Z,3.62
2023-01-04T06:10:41.542Z,3.63
2023-01-04T06:13:09.890Z,3.59
2023-01-04T06:15:43.169Z,4.01
2023-01-04T06:18:13.862Z,3.79
2023-01-04T06:20:44.124Z,3.93
2023-01-04T06:23:12.328Z,3.62
2023-01-04T06:25:40.917Z,3.63
2023-01-04T06:28:09.344Z,3.54
2023-01-04T06:30:39.282Z,3.85
2023-01-04T06:33:07.595Z,3.55
2023-01-04T06:35:36.786Z,3.59
2023-01-04T06:38:05.046Z,3.44
2023-01-04T06:40:33.592Z,3.51
2023-01-04T06:43:01.870Z,3.54
2023-01-04T06:45:30.744Z,3.50
2023-01-04T06:48:04.450Z,3.80
2023-01-04T06:50:36.293Z,3.52
2023-01-04T06:53:04.835Z,3.61
2023-01-04T06:55:33.763Z,3.51
2023-01-04T06:58:02.816Z,3.48
2023-01-04T07:00:31.988Z,3.47
2023-01-04T07:03:13.510Z,3.67
2023-01-04T07:05:49.096Z,3.62
2023-01-04T07:08:18.383Z,3.64
2023-01-04T07:10:48.100Z,3.73
2023-01-04T07:13:19.442Z,3.71
2023-01-04T07:15:49.016Z,3.58
2023-01-04T07:18:20.814Z,3.90
2023-01-04T07:20:49.731Z,3.79
2023-01-04T07:23:24.182Z,3.83
2023-01-04T07:25:53.825Z,3.86
2023-01-04T07:28:36.181Z,4.29
2023-01-04T07:31:07.668Z,5.43
2023-01-04T07:33:39.171Z,6.54
2023-01-04T07:36:13.524Z,7.41
2023-01-04T07:38:44.346Z,7.92
2023-01-04T07:41:14.054Z,8.52
2023-01-04T07:43:42.538Z,8.97
2023-01-04T07:46:11.634Z,9.63
2023-01-04T07:48:44.200Z,10.15
2023-01-04T07:51:13.175Z,9.74
2023-01-04T07:53:42.388Z,9.44
2023-01-04T07:56:16.764Z,9.62
2023-01-04T07:58:49.865Z,10.42
2023-01-04T08:01:20.678Z,11.35
2023-01-04T08:03:51.766Z,12.06
2023-01-04T08:06:22.539Z,12.64
2023-01-04T08:08:51.069Z,13.05
2023-01-04T08:11:22.795Z,13.23
2023-01-04T08:13:51.547Z,13.03
2023-01-04T08:16:25.332Z,13.66
2023-01-04T08:18:57.109Z,14.57
2023-01-04T08:21:27.383Z,15.08
2023-01-04T08:23:56.152Z,15.78
2023-01-04T08:26:24.795Z,16.40
2023-01-04T08:28:53.510Z,17.02
2023-01-04T08:31:23.605Z,17.71
2023-01-04T08:33:52.288Z,17.87
2023-01-04T08:36:27.108Z,18.24
2023-01-04T08:39:00.591Z,18.18
2023-01-04T08:44:19.295Z,18.85
2023-01-04T08:46:48.920Z,19.17
2023-01-04T08:49:18.271Z,19.27
2023-01-04T08:51:52.322Z,19.66
2023-01-04T08:54:21.176Z,19.06
2023-01-04T08:56:49.899Z,19.32
2023-01-04T08:59:18.669Z,19.73
2023-01-04T09:01:47.784Z,19.95
2023-01-04T09:04:16.331Z,20.06
2023-01-04T09:06:45.031Z,20.19
2023-01-04T09:09:14.829Z,20.55
2023-01-04T09:11:43.517Z,20.41
2023-01-04T09:14:14.116Z,20.64
2023-01-04T09:16:43.021Z,20.89
2023-01-04T09:19:15.150Z,21.25
2023-01-04T09:21:47.077Z,21.16
2023-01-04T09:24:16.942Z,21.60
2023-01-04T09:26:47.661Z,21.55
2023-01-04T09:29:16.216Z,21.71
2023-01-04T09:31:45.080Z,21.66
2023-01-04T09:34:16.481Z,21.98
2023-01-04T09:36:46.346Z,21.76
2023-01-04T09:39:24.450Z,21.61
2023-01-04T09:41:59.046Z,22.27
2023-01-04T09:47:34.456Z,22.21
2023-01-04T09:50:08.143Z,22.47
2023-01-04T09:52:44.563Z,22.69
2023-01-04T09:55:37.626Z,22.57
2023-01-04T09:58:15.099Z,22.48
2023-01-04T10:00:46.372Z,22.47
2023-01-04T10:03:17.756Z,21.87
2023-01-04T10:05:46.471Z,22.09
2023-01-04T10:08:17.818Z,23.07
2023-01-04T10:10:56.438Z,23.50
2023-01-04T10:13:40.074Z,23.84
2023-01-04T10:16:17.653Z,22.94
2023-01-04T10:19:36.969Z,22.06
2023-01-04T10:21:49.082Z,22.11
2023-01-04T10:24:36.823Z,22.50
2023-01-04T10:27:18.415Z,22.42
2023-01-04T10:29:54.867Z,21.77
2023-01-04T10:32:34.392Z,21.85
2023-01-04T10:35:03.957Z,21.25
2023-01-04T10:37:36.087Z,20.53
2023-01-04T10:40:14.054Z,19.47
2023-01-04T10:42:50.334Z,18.79
2023-01-04T10:45:22.656Z,18.45
2023-01-04T10:47:57.755Z,18.44
2023-01-04T10:50:30.752Z,19.09
2023-01-04T10:53:04.077Z,19.60
2023-01-04T10:55:37.982Z,19.24
2023-01-04T10:58:13.853Z,18.46
2023-01-04T11:00:45.582Z,17.53
2023-01-04T11:03:20.014Z,16.65
2023-01-04T11:05:52.846Z,16.39
2023-01-04T11:08:27.778Z,15.88
2023-01-04T11:10:59.886Z,15.21
2023-01-04T11:13:29.934Z,14.39
2023-01-04T11:16:01.458Z,13.61
2023-01-04T11:18:30.334Z,13.59
2023-01-04T11:20:59.127Z,13.21
2023-01-04T11:23:27.524Z,12.95
2023-01-04T11:25:59.097Z,13.07
2023-01-04T11:28:31.243Z,12.92
2023-01-04T11:31:05.532Z,12.75
2023-01-04T11:33:53.526Z,12.63
2023-01-04T11:36:39.927Z,12.58
2023-01-04T11:39:18.917Z,12.58
2023-01-04T11:42:00.753Z,13.04
2023-01-04T11:44:33.606Z,12.86
2023-01-04T11:47:10.893Z,13.11
2023-01-04T11:49:39.301Z,13.00
2023-01-04T11:52:08.656Z,12.87
2023-01-04T11:54:37.208Z,13.02
2023-01-04T11:57:11.605Z,12.66
2023-01-04T12:05:26.190Z,12.31
2023-01-04T12:07:59.269Z,11.44
2023-01-04T12:10:29.809Z,11.10
2023-01-04T12:13:02.425Z,10.96
2023-01-04T12:15:37.041Z,10.85
2023-01-04T12:18:08.028Z,10.64
2023-01-04T12:20:37.595Z,10.34
2023-01-04T12:23:06.857Z,9.80
2023-01-04T12:25:40.496Z,9.94
2023-01-04T12:28:30.099Z,9.80
2023-01-04T12:31:28.684Z,9.62
2023-01-04T12:33:58.781Z,8.97
2023-01-04T12:37:03.105Z,9.40
2023-01-04T12:39:43.936Z,9.06
2023-01-04T12:42:25.011Z,8.66
2023-01-04T12:45:24.479Z,9.01
2023-01-04T12:48:13.087Z,8.87
2023-01-04T12:51:31.597Z,9.08
2023-01-04T12:54:02.237Z,8.74
2023-01-04T12:57:08.253Z,9.38
2023-01-04T12:59:38.746Z,8.99
2023-01-04T13:02:18.575Z,9.06
2023-01-04T13:04:49.303Z,8.86
2023-01-04T13:07:22.298Z,8.98
2023-01-04T13:09:56.288Z,9.24
2023-01-04T13:13:01.056Z,9.10
2023-01-04T13:15:42.670Z,9.05
2023-01-04T13:18:30.454Z,9.19
2023-01-04T13:21:01.390Z,8.78
2023-01-04T13:23:32.061Z,8.64
2023-01-04T13:26:33.753Z,8.99
2023-01-04T13:29:12.034Z,8.91
2023-01-04T13:31:46.904Z,8.94
2023-01-04T13:34:24.686Z,8.90
2023-01-04T13:37:17.370Z,9.07
2023-01-04T13:39:47.991Z,8.69
2023-01-04T13:42:25.320Z,9.19
2023-01-04T13:45:39.642Z,9.25
2023-01-04T13:48:12.425Z,9.17
2023-01-04T13:50:47.500Z,9.04
2023-01-04T13:53:22.842Z,9.43
2023-01-04T13:55:53.160Z,9.16
2023-01-04T13:58:23.299Z,9.02
2023-01-04T14:00:54.937Z,9.14
2023-01-04T14:03:29.047Z,9.17
2023-01-04T14:06:04.688Z,9.03
2023-01-04T14:08:39.737Z,8.97
2023-01-04T14:11:36.907Z,9.08
2023-01-04T14:14:05.997Z,8.85
2023-01-04T14:16:35.005Z,8.44
2023-01-04T14:19:40.402Z,9.01
2023-01-04T14:22:40.010Z,9.16
2023-01-04T14:25:56.727Z,9.31
2023-01-04T14:28:38.855Z,9.08
2023-01-04T14:31:30.183Z,9.00
2023-01-04T14:34:00.594Z,8.62
2023-01-04T14:36:32.787Z,8.93
2023-01-04T14:39:13.509Z,9.28
2023-01-04T14:41:46.013Z,8.91
2023-01-04T14:44:21.152Z,8.82
2023-01-04T14:46:51.593Z,8.90
2023-01-04T14:49:22.470Z,8.75
2023-01-04T14:51:53.492Z,8.71
2023-01-04T14:54:25.397Z,8.45
2023-01-04T14:56:54.820Z,8.61
2023-01-04T14:59:25.728Z,8.86
2023-01-04T15:01:55.067Z,8.60
2023-01-04T15:04:25.790Z,8.51
2023-01-04T15:06:56.762Z,8.77
2023-01-04T15:09:25.707Z,8.43
2023-01-04T15:11:55.417Z,8.46
2023-01-04T15:14:27.999Z,8.75
2023-01-04T15:16:56.698Z,8.32
2023-01-04T15:19:25.768Z,8.57
2023-01-04T15:21:54.621Z,8.24
2023-01-04T15:24:23.512Z,8.36
2023-01-04T15:26:52.598Z,8.05
2023-01-04T15:29:22.641Z,8.03
2023-01-04T15:31:52.773Z,8.32
2023-01-04T15:34:23.272Z,8.07
2023-01-04T15:36:52.786Z,7.94
2023-01-04T15:39:21.886Z,7.90
2023-01-04T15:42:04.392Z,7.58
2023-01-04T15:44:34.054Z,7.50
2023-01-04T15:47:04.420Z,7.64
2023-01-04T15:49:38.561Z,7.06
2023-01-04T15:52:07.372Z,7.18
2023-01-04T15:54:37.625Z,6.95
2023-01-04T15:57:06.582Z,6.90
2023-01-04T15:59:35.536Z,7.08
2023-01-04T16:02:05.698Z,7.39
2023-01-04T16:04:34.495Z,7.17
2023-01-04T16:07:03.009Z,7.10
2023-01-04T16:09:31.884Z,6.94
2023-01-04T16:12:18.159Z,7.33
2023-01-04T16:14:46.687Z,7.15
2023-01-04T16:17:16.465Z,7.30
2023-01-04T16:19:45.209Z,7.19
2023-01-04T16:22:13.941Z,7.35
2023-01-04T16:25:09.926Z,7.15
2023-01-04T16:27:35.397Z,7.46
2023-01-04T16:30:05.436Z,7.07
2023-01-04T16:32:41.774Z,7.61
2023-01-04T16:35:13.045Z,7.48
2023-01-04T16:37:43.084Z,7.37
2023-01-04T16:40:13.334Z,7.59
2023-01-04T16:42:41.937Z,7.49
2023-01-04T16:45:11.992Z,7.52
2023-01-04T16:47:43.948Z,7.78
2023-01-04T16:50:13.649Z,7.56
2023-01-04T16:52:42.229Z,7.52
2023-01-04T16:55:12.036Z,7.69
2023-01-04T16:57:40.514Z,7.48
2023-01-04T17:00:10.624Z,7.79
2023-01-04T17:02:39.786Z,7.36
2023-01-04T17:05:10.773Z,7.61
2023-01-04T17:07:42.311Z,7.52
2023-01-04T17:10:13.236Z,7.36
2023-01-04T17:12:49.447Z,7.37
2023-01-04T17:18:08.106Z,7.70
2023-01-04T17:20:41.021Z,7.80
2023-01-04T17:23:10.081Z,7.46
2023-01-04T17:25:38.844Z,7.44
2023-01-04T17:28:07.376Z,7.47
2023-01-04T17:30:39.230Z,7.90
2023-01-04T17:33:07.828Z,8.21
2023-01-04T17:35:41.561Z,7.84
2023-01-04T17:38:10.545Z,7.82
2023-01-04T17:40:39.743Z,7.79
2023-01-04T17:43:09.024Z,7.79
2023-01-04T17:45:38.442Z,7.73
2023-01-04T17:48:08.235Z,7.84
2023-01-04T17:50:39.761Z,8.12
2023-01-04T17:53:08.361Z,8.13
2023-01-04T17:55:38.188Z,7.86
2023-01-04T17:58:10.055Z,7.96
2023-01-04T18:00:42.825Z,8.12
2023-01-04T18:03:12.228Z,8.07
2023-01-04T18:05:52.037Z,8.67
2023-01-04T18:08:21.611Z,8.05
2023-01-04T18:11:07.323Z,8.13
2023-01-04T18:13:36.929Z,8.09
2023-01-04T18:16:23.939Z,8.52
2023-01-04T18:18:58.104Z,8.24
2023-01-04T18:21:31.065Z,8.69
2023-01-04T18:24:35.504Z,8.46
2023-01-04T18:29:42.227Z,8.37
2023-01-04T18:32:13.630Z,8.39
2023-01-04T18:34:43.221Z,7.94
2023-01-04T18:37:16.393Z,8.57
2023-01-04T18:39:45.919Z,8.50
2023-01-04T18:42:15.122Z,8.37
2023-01-04T18:44:51.077Z,8.32
2023-01-04T18:47:21.859Z,8.70
2023-01-04T18:49:51.436Z,8.14
2023-01-04T18:52:22.594Z,8.70
2023-01-04T18:54:52.305Z,8.49
2023-01-04T18:57:22.823Z,8.33
2023-01-04T18:59:52.134Z,8.05
2023-01-04T19:02:22.367Z,8.41
2023-01-04T19:04:52.597Z,8.43
2023-01-04T19:07:23.642Z,8.48
2023-01-04T19:09:52.382Z,8.16
2023-01-04T19:12:21.596Z,8.40
2023-01-04T19:14:50.373Z,8.51
2023-01-04T19:17:21.668Z,8.26
2023-01-04T19:19:50.355Z,8.36
2023-01-04T19:22:19.121Z,8.13
2023-01-04T19:24:49.285Z,8.39
2023-01-04T19:27:19.844Z,8.16
2023-01-04T19:29:48.717Z,8.42
2023-01-04T19:32:21.343Z,8.29
2023-01-04T19:34:52.173Z,8.39
2023-01-04T19:37:21.552Z,8.65
2023-01-04T19:39:51.611Z,8.62
2023-01-04T19:42:21.153Z,8.36
2023-01-04T19:44:49.698Z,8.41
2023-01-04T19:47:19.258Z,8.26
2023-01-04T19:49:49.174Z,8.92
2023-01-04T19:52:18.063Z,8.51
2023-01-04T19:54:46.331Z,8.56
2023-01-04T19:57:16.272Z,8.85
2023-01-04T19:59:44.640Z,8.91
2023-01-04T20:02:13.765Z,8.57
2023-01-04T20:04:42.735Z,8.47
2023-01-04T20:07:12.109Z,8.73
2023-01-04T20:09:43.719Z,8.77
2023-01-04T20:12:12.808Z,8.82
2023-01-04T20:14:45.010Z,9.16
2023-01-04T20:17:16.091Z,8.76
2023-01-04T20:19:46.303Z,8.52
2023-01-04T20:22:17.687Z,8.76
2023-01-04T20:24:46.867Z,8.69
2023-01-04T20:27:16.162Z,8.82
2023-01-04T20:29:46.160Z,9.18
2023-01-04T20:32:15.104Z,9.04
2023-01-04T20:34:44.849Z,9.01
2023-01-04T20:37:14.082Z,8.93
2023-01-04T20:39:42.585Z,8.98
2023-01-04T20:42:29.068Z,9.01
2023-01-04T20:44:59.330Z,9.08
2023-01-04T20:47:30.503Z,8.97
2023-01-04T20:49:59.578Z,8.88
2023-01-04T20:52:30.027Z,9.17
2023-01-04T20:54:59.700Z,8.94
2023-01-04T20:57:28.774Z,8.96
2023-01-04T20:59:58.813Z,9.23
2023-01-04T21:02:30.230Z,9.03
2023-01-04T21:05:01.858Z,9.15
2023-01-04T21:07:31.086Z,9.09
2023-01-04T21:09:59.742Z,9.25
2023-01-04T21:12:29.463Z,9.02
2023-01-04T21:14:59.773Z,9.23
2023-01-04T21:17:29.369Z,9.09
2023-01-04T21:19:58.251Z,8.81
2023-01-04T21:22:27.196Z,8.97
2023-01-04T21:24:56.039Z,8.73
2023-01-04T21:27:24.933Z,8.94
2023-01-04T21:29:53.229Z,8.92
2023-01-04T21:32:23.391Z,9.16
2023-01-04T21:34:54.094Z,9.22
2023-01-04T21:37:25.116Z,8.99
2023-01-04T21:39:57.180Z,9.28
2023-01-04T21:42:26.317Z,9.28
2023-01-04T21:44:55.523Z,9.37
2023-01-04T21:47:28.581Z,9.46
2023-01-04T21:49:57.381Z,9.04
2023-01-04T21:52:26.475Z,9.34
2023-01-04T21:54:55.364Z,9.29
2023-01-04T21:57:24.411Z,9.29
2023-01-04T21:59:53.025Z,9.39
2023-01-04T22:02:22.434Z,9.39
2023-01-04T22:04:52.468Z,9.66
2023-01-04T22:07:21.303Z,9.12
2023-01-04T22:09:57.091Z,8.89
2023-01-04T22:12:26.486Z,8.77
2023-01-04T22:14:55.309Z,9.17
2023-01-04T22:17:24.037Z,9.09
2023-01-04T22:19:53.900Z,9.17
2023-01-04T22:22:22.786Z,9.32
2023-01-04T22:24:51.743Z,8.88
2023-01-04T22:27:21.006Z,8.85
2023-01-04T22:29:49.320Z,8.93
2023-01-04T22:32:18.684Z,8.95
2023-01-04T22:34:51.710Z,9.06
2023-01-04T22:37:24.533Z,9.44
2023-01-04T22:40:03.377Z,9.40
2023-01-04T22:42:34.812Z,9.27
2023-01-04T22:45:12.784Z,9.01
2023-01-04T22:47:42.911Z,8.73
2023-01-04T22:50:18.624Z,9.01
2023-01-04T22:52:51.035Z,9.10
2023-01-04T22:55:45.784Z,9.16
2023-01-04T22:58:26.569Z,9.04
2023-01-04T23:01:01.865Z,8.81
2023-01-04T23:03:30.910Z,8.76
2023-01-04T23:06:04.455Z,8.87
2023-01-04T23:08:38.859Z,9.13
2023-01-04T23:11:15.571Z,9.26
2023-01-04T23:13:44.248Z,8.61
2023-01-04T23:16:19.083Z,9.16
2023-01-04T23:18:50.010Z,8.81
2023-01-04T23:21:18.334Z,8.82
2023-01-04T23:23:52.649Z,9.27
2023-01-04T23:26:24.130Z,9.27
2023-01-04T23:28:55.989Z,8.62
2023-01-04T23:31:32.790Z,8.77
2023-01-04T23:34:07.640Z,9.08
2023-01-04T23:36:38.239Z,8.90
2023-01-04T23:39:14.033Z,9.05
2023-01-04T23:41:45.794Z,8.64
2023-01-04T23:44:19.505Z,8.95
2023-01-04T23:46:48.516Z,8.87
2023-01-04T23:49:17.271Z,8.76
2023-01-04T23:51:45.567Z,8.75
2023-01-04T23:54:15.641Z,8.94
2023-01-04T23:56:44.016Z,8.94
2023-01-04T23:59:14.742Z,9.04
